Denver, Colorado
Current Conditions -  °F | °C
As of 8:58 AM on Thursday 30 Oct 2014 (Local Time) from KBKF Reporting Station
Few Clouds Few Clouds  
Wind Chill: 45°   Ceiling: Unl
Heat Index: 45°   Visibility: 10mi
Dew Point: 28°   Wind: 3mph
Humidity: 52%   Direction: 180°S
Pressure: 30.41"   Gusts: NA
Location:  39.74°N, 104.99°W
Report Text: KBKF 301458Z 18003KT 10SM FEW110 07/M02 A3041 RMK AO2A SLP267 T00721020 52015
Loading
Personal Weather Stations






























Interactive Weather Map
Tropical Storm Tracking
New forecast layout! Learn more

10-Day Weather Forecast

Advertisements
Track Severe Weather on mobile